sensor_id;sensor_type;location;lat;lon;timestamp;P1;durP1;ratioP1;P2;durP2;ratioP2
22963;SDS011;11648;49.306;6.934;2023-08-08T00:01:01;2.90;;;0.83;;
22963;SDS011;11648;49.306;6.934;2023-08-08T00:03:29;3.27;;;1.10;;
22963;SDS011;11648;49.306;6.934;2023-08-08T00:05:55;2.83;;;1.07;;
22963;SDS011;11648;49.306;6.934;2023-08-08T00:08:22;3.10;;;1.20;;
22963;SDS011;11648;49.306;6.934;2023-08-08T00:10:49;3.73;;;1.20;;
22963;SDS011;11648;49.306;6.934;2023-08-08T00:13:16;2.97;;;1.07;;
22963;SDS011;11648;49.306;6.934;2023-08-08T00:15:42;2.77;;;0.90;;
22963;SDS011;11648;49.306;6.934;2023-08-08T00:18:09;2.03;;;0.90;;
22963;SDS011;11648;49.306;6.934;2023-08-08T00:20:37;4.37;;;1.00;;
22963;SDS011;11648;49.306;6.934;2023-08-08T00:23:03;3.33;;;1.00;;
22963;SDS011;11648;49.306;6.934;2023-08-08T00:25:30;2.83;;;0.90;;
22963;SDS011;11648;49.306;6.934;2023-08-08T00:27:57;2.17;;;0.80;;
22963;SDS011;11648;49.306;6.934;2023-08-08T00:30:24;2.03;;;0.93;;
22963;SDS011;11648;49.306;6.934;2023-08-08T00:32:50;3.53;;;1.10;;
22963;SDS011;11648;49.306;6.934;2023-08-08T00:35:18;4.70;;;1.10;;
22963;SDS011;11648;49.306;6.934;2023-08-08T00:37:44;2.87;;;0.90;;
22963;SDS011;11648;49.306;6.934;2023-08-08T00:40:11;3.10;;;0.90;;
22963;SDS011;11648;49.306;6.934;2023-08-08T00:42:38;2.00;;;1.03;;
22963;SDS011;11648;49.306;6.934;2023-08-08T00:45:05;3.67;;;1.30;;
22963;SDS011;11648;49.306;6.934;2023-08-08T00:47:32;5.03;;;1.50;;
22963;SDS011;11648;49.306;6.934;2023-08-08T00:50:01;5.13;;;1.10;;
22963;SDS011;11648;49.306;6.934;2023-08-08T00:52:30;4.03;;;1.10;;
22963;SDS011;11648;49.306;6.934;2023-08-08T00:54:57;3.13;;;1.00;;
22963;SDS011;11648;49.306;6.934;2023-08-08T00:57:25;2.40;;;0.93;;
22963;SDS011;11648;49.306;6.934;2023-08-08T00:59:52;1.90;;;1.10;;
22963;SDS011;11648;49.306;6.934;2023-08-08T01:02:20;3.70;;;1.03;;
22963;SDS011;11648;49.306;6.934;2023-08-08T01:04:47;3.80;;;1.10;;
22963;SDS011;11648;49.306;6.934;2023-08-08T01:10:28;2.10;;;1.00;;
22963;SDS011;11648;49.306;6.934;2023-08-08T01:13:00;4.07;;;1.03;;
22963;SDS011;11648;49.306;6.934;2023-08-08T01:15:34;4.07;;;1.13;;
22963;SDS011;11648;49.306;6.934;2023-08-08T01:18:03;3.37;;;1.10;;
22963;SDS011;11648;49.306;6.934;2023-08-08T01:20:34;3.07;;;0.87;;
22963;SDS011;11648;49.306;6.934;2023-08-08T01:25:45;2.53;;;1.00;;
22963;SDS011;11648;49.306;6.934;2023-08-08T01:28:14;2.70;;;1.20;;
22963;SDS011;11648;49.306;6.934;2023-08-08T01:30:41;2.73;;;0.90;;
22963;SDS011;11648;49.306;6.934;2023-08-08T01:33:08;2.67;;;1.00;;
22963;SDS011;11648;49.306;6.934;2023-08-08T01:35:37;2.63;;;1.13;;
22963;SDS011;11648;49.306;6.934;2023-08-08T01:38:16;2.07;;;1.10;;
22963;SDS011;11648;49.306;6.934;2023-08-08T01:40:46;3.57;;;1.30;;
22963;SDS011;11648;49.306;6.934;2023-08-08T01:43:14;3.70;;;1.10;;
22963;SDS011;11648;49.306;6.934;2023-08-08T01:45:42;2.30;;;1.27;;
22963;SDS011;11648;49.306;6.934;2023-08-08T01:48:10;3.57;;;1.57;;
22963;SDS011;11648;49.306;6.934;2023-08-08T01:50:37;3.50;;;1.27;;
22963;SDS011;11648;49.306;6.934;2023-08-08T01:53:04;3.47;;;1.20;;
22963;SDS011;11648;49.306;6.934;2023-08-08T01:55:31;2.53;;;1.13;;
22963;SDS011;11648;49.306;6.934;2023-08-08T01:57:58;3.57;;;1.10;;
22963;SDS011;11648;49.306;6.934;2023-08-08T02:00:25;2.57;;;1.20;;
22963;SDS011;11648;49.306;6.934;2023-08-08T02:02:52;4.10;;;1.00;;
22963;SDS011;11648;49.306;6.934;2023-08-08T02:05:19;3.50;;;1.20;;
22963;SDS011;11648;49.306;6.934;2023-08-08T02:07:47;2.40;;;1.03;;
22963;SDS011;11648;49.306;6.934;2023-08-08T02:10:13;3.17;;;1.07;;
22963;SDS011;11648;49.306;6.934;2023-08-08T02:12:40;2.53;;;1.00;;
22963;SDS011;11648;49.306;6.934;2023-08-08T02:15:07;4.77;;;1.10;;
22963;SDS011;11648;49.306;6.934;2023-08-08T02:17:34;2.87;;;1.07;;
22963;SDS011;11648;49.306;6.934;2023-08-08T02:20:01;3.03;;;1.13;;
22963;SDS011;11648;49.306;6.934;2023-08-08T02:22:27;1.90;;;1.10;;
22963;SDS011;11648;49.306;6.934;2023-08-08T02:24:56;3.17;;;1.17;;
22963;SDS011;11648;49.306;6.934;2023-08-08T02:27:23;3.00;;;0.97;;
22963;SDS011;11648;49.306;6.934;2023-08-08T02:29:49;3.33;;;1.27;;
22963;SDS011;11648;49.306;6.934;2023-08-08T02:32:16;3.97;;;1.30;;
22963;SDS011;11648;49.306;6.934;2023-08-08T02:34:43;3.43;;;1.27;;
22963;SDS011;11648;49.306;6.934;2023-08-08T02:37:12;2.67;;;1.10;;
22963;SDS011;11648;49.306;6.934;2023-08-08T02:39:39;2.23;;;1.10;;
22963;SDS011;11648;49.306;6.934;2023-08-08T02:42:06;3.37;;;1.60;;
22963;SDS011;11648;49.306;6.934;2023-08-08T02:44:33;2.33;;;1.40;;
22963;SDS011;11648;49.306;6.934;2023-08-08T02:47:00;4.23;;;1.53;;
22963;SDS011;11648;49.306;6.934;2023-08-08T02:49:27;2.43;;;1.33;;
22963;SDS011;11648;49.306;6.934;2023-08-08T02:51:55;4.20;;;1.50;;
22963;SDS011;11648;49.306;6.934;2023-08-08T02:54:23;3.50;;;1.43;;
22963;SDS011;11648;49.306;6.934;2023-08-08T02:56:49;3.70;;;1.30;;
22963;SDS011;11648;49.306;6.934;2023-08-08T02:59:16;2.97;;;1.40;;
22963;SDS011;11648;49.306;6.934;2023-08-08T03:01:43;3.30;;;1.67;;
22963;SDS011;11648;49.306;6.934;2023-08-08T03:04:16;3.20;;;1.60;;
22963;SDS011;11648;49.306;6.934;2023-08-08T03:06:44;3.40;;;1.80;;
22963;SDS011;11648;49.306;6.934;2023-08-08T03:09:10;4.03;;;1.40;;
22963;SDS011;11648;49.306;6.934;2023-08-08T03:11:38;3.47;;;1.70;;
22963;SDS011;11648;49.306;6.934;2023-08-08T03:14:11;3.40;;;1.37;;
22963;SDS011;11648;49.306;6.934;2023-08-08T03:16:38;3.83;;;1.60;;
22963;SDS011;11648;49.306;6.934;2023-08-08T03:19:07;3.37;;;1.63;;
22963;SDS011;11648;49.306;6.934;2023-08-08T03:21:35;3.30;;;1.30;;
22963;SDS011;11648;49.306;6.934;2023-08-08T03:24:03;2.60;;;1.30;;
22963;SDS011;11648;49.306;6.934;2023-08-08T03:26:30;3.93;;;1.50;;
22963;SDS011;11648;49.306;6.934;2023-08-08T03:28:57;3.30;;;1.60;;
22963;SDS011;11648;49.306;6.934;2023-08-08T03:31:31;2.73;;;1.47;;
22963;SDS011;11648;49.306;6.934;2023-08-08T03:34:01;4.10;;;1.43;;
22963;SDS011;11648;49.306;6.934;2023-08-08T03:36:30;3.83;;;1.43;;
22963;SDS011;11648;49.306;6.934;2023-08-08T03:38:57;6.33;;;1.57;;
22963;SDS011;11648;49.306;6.934;2023-08-08T03:41:24;2.93;;;1.27;;
22963;SDS011;11648;49.306;6.934;2023-08-08T03:43:50;2.43;;;1.20;;
22963;SDS011;11648;49.306;6.934;2023-08-08T03:46:18;3.30;;;1.50;;
22963;SDS011;11648;49.306;6.934;2023-08-08T03:48:44;2.60;;;1.40;;
22963;SDS011;11648;49.306;6.934;2023-08-08T03:51:11;3.40;;;1.50;;
22963;SDS011;11648;49.306;6.934;2023-08-08T03:53:38;2.93;;;1.33;;
22963;SDS011;11648;49.306;6.934;2023-08-08T03:56:05;3.47;;;1.30;;
22963;SDS011;11648;49.306;6.934;2023-08-08T03:58:33;3.80;;;1.50;;
22963;SDS011;11648;49.306;6.934;2023-08-08T04:01:00;3.60;;;1.70;;
22963;SDS011;11648;49.306;6.934;2023-08-08T04:03:27;6.43;;;3.10;;
22963;SDS011;11648;49.306;6.934;2023-08-08T04:05:55;12.13;;;6.33;;
22963;SDS011;11648;49.306;6.934;2023-08-08T04:08:22;8.77;;;4.13;;
22963;SDS011;11648;49.306;6.934;2023-08-08T04:10:49;5.90;;;2.30;;
22963;SDS011;11648;49.306;6.934;2023-08-08T04:13:15;3.73;;;1.50;;
22963;SDS011;11648;49.306;6.934;2023-08-08T04:15:42;3.67;;;1.40;;
22963;SDS011;11648;49.306;6.934;2023-08-08T04:18:09;2.77;;;1.10;;
22963;SDS011;11648;49.306;6.934;2023-08-08T04:20:36;3.27;;;1.20;;
22963;SDS011;11648;49.306;6.934;2023-08-08T04:23:03;3.43;;;1.30;;
22963;SDS011;11648;49.306;6.934;2023-08-08T04:25:30;2.40;;;1.50;;
22963;SDS011;11648;49.306;6.934;2023-08-08T04:27:56;2.57;;;1.33;;
22963;SDS011;11648;49.306;6.934;2023-08-08T04:30:23;3.43;;;1.20;;
22963;SDS011;11648;49.306;6.934;2023-08-08T04:32:50;5.00;;;1.40;;
22963;SDS011;11648;49.306;6.934;2023-08-08T04:35:17;3.47;;;1.40;;
22963;SDS011;11648;49.306;6.934;2023-08-08T04:37:44;2.73;;;1.57;;
22963;SDS011;11648;49.306;6.934;2023-08-08T04:40:10;3.23;;;1.40;;
22963;SDS011;11648;49.306;6.934;2023-08-08T04:42:38;3.50;;;1.40;;
22963;SDS011;11648;49.306;6.934;2023-08-08T04:45:05;3.67;;;1.50;;
22963;SDS011;11648;49.306;6.934;2023-08-08T04:47:32;3.53;;;1.30;;
22963;SDS011;11648;49.306;6.934;2023-08-08T04:49:59;3.03;;;1.53;;
22963;SDS011;11648;49.306;6.934;2023-08-08T04:52:26;3.37;;;1.60;;
22963;SDS011;11648;49.306;6.934;2023-08-08T04:54:52;2.33;;;1.63;;
22963;SDS011;11648;49.306;6.934;2023-08-08T04:57:19;2.93;;;1.63;;
22963;SDS011;11648;49.306;6.934;2023-08-08T04:59:46;2.57;;;1.37;;
22963;SDS011;11648;49.306;6.934;2023-08-08T05:02:12;3.83;;;1.63;;
22963;SDS011;11648;49.306;6.934;2023-08-08T05:04:39;6.77;;;1.27;;
22963;SDS011;11648;49.306;6.934;2023-08-08T05:07:06;4.80;;;1.53;;
22963;SDS011;11648;49.306;6.934;2023-08-08T05:09:32;2.70;;;1.40;;
22963;SDS011;11648;49.306;6.934;2023-08-08T05:11:59;5.70;;;1.63;;
22963;SDS011;11648;49.306;6.934;2023-08-08T05:14:27;3.77;;;1.40;;
22963;SDS011;11648;49.306;6.934;2023-08-08T05:16:53;4.70;;;1.23;;
22963;SDS011;11648;49.306;6.934;2023-08-08T05:19:20;2.97;;;1.40;;
22963;SDS011;11648;49.306;6.934;2023-08-08T05:21:47;5.00;;;1.30;;
22963;SDS011;11648;49.306;6.934;2023-08-08T05:24:15;3.27;;;1.30;;
22963;SDS011;11648;49.306;6.934;2023-08-08T05:26:42;4.60;;;1.40;;
22963;SDS011;11648;49.306;6.934;2023-08-08T05:29:09;3.67;;;1.27;;
22963;SDS011;11648;49.306;6.934;2023-08-08T05:31:35;3.37;;;1.40;;
22963;SDS011;11648;49.306;6.934;2023-08-08T05:34:02;2.30;;;1.17;;
22963;SDS011;11648;49.306;6.934;2023-08-08T05:36:29;1.97;;;1.10;;
22963;SDS011;11648;49.306;6.934;2023-08-08T05:38:56;4.20;;;1.53;;
22963;SDS011;11648;49.306;6.934;2023-08-08T05:41:22;3.80;;;1.00;;
22963;SDS011;11648;49.306;6.934;2023-08-08T05:43:49;2.90;;;1.20;;
22963;SDS011;11648;49.306;6.934;2023-08-08T05:46:16;1.90;;;1.00;;
22963;SDS011;11648;49.306;6.934;2023-08-08T05:48:43;2.70;;;1.17;;
22963;SDS011;11648;49.306;6.934;2023-08-08T05:51:11;3.53;;;1.10;;
22963;SDS011;11648;49.306;6.934;2023-08-08T05:53:38;3.03;;;0.90;;
22963;SDS011;11648;49.306;6.934;2023-08-08T05:56:05;2.83;;;1.07;;
22963;SDS011;11648;49.306;6.934;2023-08-08T05:58:31;1.63;;;0.80;;
22963;SDS011;11648;49.306;6.934;2023-08-08T06:00:58;3.17;;;1.03;;
22963;SDS011;11648;49.306;6.934;2023-08-08T06:03:25;3.43;;;1.10;;
22963;SDS011;11648;49.306;6.934;2023-08-08T06:05:52;4.20;;;1.07;;
22963;SDS011;11648;49.306;6.934;2023-08-08T06:08:19;2.70;;;0.93;;
22963;SDS011;11648;49.306;6.934;2023-08-08T06:10:45;5.23;;;1.00;;
22963;SDS011;11648;49.306;6.934;2023-08-08T06:13:12;6.20;;;1.07;;
22963;SDS011;11648;49.306;6.934;2023-08-08T06:15:39;4.80;;;1.23;;
22963;SDS011;11648;49.306;6.934;2023-08-08T06:18:05;3.57;;;1.10;;
22963;SDS011;11648;49.306;6.934;2023-08-08T06:20:33;4.20;;;1.30;;
22963;SDS011;11648;49.306;6.934;2023-08-08T06:22:59;4.67;;;1.17;;
22963;SDS011;11648;49.306;6.934;2023-08-08T06:25:26;3.80;;;1.03;;
22963;SDS011;11648;49.306;6.934;2023-08-08T06:27:54;3.53;;;1.10;;
22963;SDS011;11648;49.306;6.934;2023-08-08T06:30:21;2.03;;;0.90;;
22963;SDS011;11648;49.306;6.934;2023-08-08T06:32:48;3.53;;;0.80;;
22963;SDS011;11648;49.306;6.934;2023-08-08T06:35:15;3.63;;;1.10;;
22963;SDS011;11648;49.306;6.934;2023-08-08T06:37:43;2.80;;;1.10;;
22963;SDS011;11648;49.306;6.934;2023-08-08T06:40:10;3.30;;;1.10;;
22963;SDS011;11648;49.306;6.934;2023-08-08T06:42:37;3.77;;;1.23;;
22963;SDS011;11648;49.306;6.934;2023-08-08T06:45:06;2.87;;;1.00;;
22963;SDS011;11648;49.306;6.934;2023-08-08T06:47:33;3.57;;;1.10;;
22963;SDS011;11648;49.306;6.934;2023-08-08T06:50:00;2.90;;;1.17;;
22963;SDS011;11648;49.306;6.934;2023-08-08T06:52:26;2.33;;;0.90;;
22963;SDS011;11648;49.306;6.934;2023-08-08T06:54:53;2.40;;;0.87;;
22963;SDS011;11648;49.306;6.934;2023-08-08T06:57:20;2.10;;;0.90;;
22963;SDS011;11648;49.306;6.934;2023-08-08T06:59:47;3.90;;;1.10;;
22963;SDS011;11648;49.306;6.934;2023-08-08T07:02:17;2.43;;;0.90;;
22963;SDS011;11648;49.306;6.934;2023-08-08T07:04:45;2.33;;;0.77;;
22963;SDS011;11648;49.306;6.934;2023-08-08T07:07:12;2.60;;;0.80;;
22963;SDS011;11648;49.306;6.934;2023-08-08T07:09:39;2.97;;;0.93;;
22963;SDS011;11648;49.306;6.934;2023-08-08T07:12:06;3.53;;;1.00;;
22963;SDS011;11648;49.306;6.934;2023-08-08T07:14:33;2.73;;;0.73;;
22963;SDS011;11648;49.306;6.934;2023-08-08T07:17:00;3.20;;;1.10;;
22963;SDS011;11648;49.306;6.934;2023-08-08T07:19:28;2.43;;;0.90;;
22963;SDS011;11648;49.306;6.934;2023-08-08T07:21:55;3.30;;;0.90;;
22963;SDS011;11648;49.306;6.934;2023-08-08T07:24:22;3.53;;;0.90;;
22963;SDS011;11648;49.306;6.934;2023-08-08T07:26:52;1.77;;;0.90;;
22963;SDS011;11648;49.306;6.934;2023-08-08T07:29:19;4.07;;;1.10;;
22963;SDS011;11648;49.306;6.934;2023-08-08T07:31:47;2.73;;;1.20;;
22963;SDS011;11648;49.306;6.934;2023-08-08T07:34:14;4.73;;;1.17;;
22963;SDS011;11648;49.306;6.934;2023-08-08T07:36:40;5.13;;;1.10;;
22963;SDS011;11648;49.306;6.934;2023-08-08T07:39:07;3.03;;;0.90;;
22963;SDS011;11648;49.306;6.934;2023-08-08T07:41:34;3.50;;;0.90;;
22963;SDS011;11648;49.306;6.934;2023-08-08T07:44:01;2.97;;;1.00;;
22963;SDS011;11648;49.306;6.934;2023-08-08T07:46:29;2.97;;;0.77;;
22963;SDS011;11648;49.306;6.934;2023-08-08T07:48:56;3.20;;;0.97;;
22963;SDS011;11648;49.306;6.934;2023-08-08T07:51:25;4.20;;;0.83;;
22963;SDS011;11648;49.306;6.934;2023-08-08T07:53:52;3.57;;;1.00;;
22963;SDS011;11648;49.306;6.934;2023-08-08T07:56:19;3.17;;;1.00;;
22963;SDS011;11648;49.306;6.934;2023-08-08T07:58:45;3.27;;;0.90;;
22963;SDS011;11648;49.306;6.934;2023-08-08T08:01:12;3.00;;;0.83;;
22963;SDS011;11648;49.306;6.934;2023-08-08T08:03:40;3.50;;;1.20;;
22963;SDS011;11648;49.306;6.934;2023-08-08T08:06:07;2.60;;;0.90;;
22963;SDS011;11648;49.306;6.934;2023-08-08T08:08:33;2.67;;;0.90;;
22963;SDS011;11648;49.306;6.934;2023-08-08T08:11:01;3.00;;;1.13;;
22963;SDS011;11648;49.306;6.934;2023-08-08T08:13:29;3.37;;;1.20;;
22963;SDS011;11648;49.306;6.934;2023-08-08T08:15:55;3.57;;;0.80;;
22963;SDS011;11648;49.306;6.934;2023-08-08T08:18:22;2.57;;;0.70;;
22963;SDS011;11648;49.306;6.934;2023-08-08T08:20:49;2.33;;;0.80;;
22963;SDS011;11648;49.306;6.934;2023-08-08T08:23:16;2.17;;;0.73;;
22963;SDS011;11648;49.306;6.934;2023-08-08T08:25:42;2.67;;;0.80;;
22963;SDS011;11648;49.306;6.934;2023-08-08T08:28:09;2.25;;;0.88;;
22963;SDS011;11648;49.306;6.934;2023-08-08T08:30:36;2.30;;;0.80;;
22963;SDS011;11648;49.306;6.934;2023-08-08T08:33:03;4.90;;;0.90;;
22963;SDS011;11648;49.306;6.934;2023-08-08T08:35:30;3.60;;;0.87;;
22963;SDS011;11648;49.306;6.934;2023-08-08T08:37:57;3.77;;;0.90;;
22963;SDS011;11648;49.306;6.934;2023-08-08T08:40:24;2.87;;;0.80;;
22963;SDS011;11648;49.306;6.934;2023-08-08T08:42:51;2.70;;;0.90;;
22963;SDS011;11648;49.306;6.934;2023-08-08T08:45:19;2.40;;;0.80;;
22963;SDS011;11648;49.306;6.934;2023-08-08T08:47:47;4.15;;;1.10;;
22963;SDS011;11648;49.306;6.934;2023-08-08T08:50:16;2.35;;;0.82;;
22963;SDS011;11648;49.306;6.934;2023-08-08T08:52:44;2.13;;;0.80;;
22963;SDS011;11648;49.306;6.934;2023-08-08T08:55:11;1.98;;;0.80;;
22963;SDS011;11648;49.306;6.934;2023-08-08T08:57:38;3.22;;;0.90;;
22963;SDS011;11648;49.306;6.934;2023-08-08T09:00:05;4.05;;;0.95;;
22963;SDS011;11648;49.306;6.934;2023-08-08T09:02:32;2.67;;;0.80;;
22963;SDS011;11648;49.306;6.934;2023-08-08T09:05:00;5.25;;;0.90;;
22963;SDS011;11648;49.306;6.934;2023-08-08T09:07:29;2.35;;;0.80;;
22963;SDS011;11648;49.306;6.934;2023-08-08T09:09:59;3.05;;;0.90;;
22963;SDS011;11648;49.306;6.934;2023-08-08T09:12:25;2.95;;;0.85;;
22963;SDS011;11648;49.306;6.934;2023-08-08T09:14:54;4.35;;;1.50;;
22963;SDS011;11648;49.306;6.934;2023-08-08T09:17:25;2.60;;;1.00;;
22963;SDS011;11648;49.306;6.934;2023-08-08T09:20:13;2.40;;;0.77;;
22963;SDS011;11648;49.306;6.934;2023-08-08T09:22:40;3.42;;;0.98;;
22963;SDS011;11648;49.306;6.934;2023-08-08T09:25:07;3.15;;;1.00;;
22963;SDS011;11648;49.306;6.934;2023-08-08T09:27:35;4.30;;;1.17;;
22963;SDS011;11648;49.306;6.934;2023-08-08T09:30:02;5.25;;;0.90;;
22963;SDS011;11648;49.306;6.934;2023-08-08T09:32:30;2.88;;;1.00;;
22963;SDS011;11648;49.306;6.934;2023-08-08T09:34:58;2.13;;;0.80;;
22963;SDS011;11648;49.306;6.934;2023-08-08T09:37:25;3.58;;;1.00;;
22963;SDS011;11648;49.306;6.934;2023-08-08T09:39:59;2.20;;;1.00;;
22963;SDS011;11648;49.306;6.934;2023-08-08T09:42:27;2.40;;;0.80;;
22963;SDS011;11648;49.306;6.934;2023-08-08T09:44:56;2.72;;;0.85;;
22963;SDS011;11648;49.306;6.934;2023-08-08T09:47:24;3.15;;;0.90;;
22963;SDS011;11648;49.306;6.934;2023-08-08T09:49:51;2.80;;;0.80;;
22963;SDS011;11648;49.306;6.934;2023-08-08T09:52:18;3.17;;;1.00;;
22963;SDS011;11648;49.306;6.934;2023-08-08T09:54:46;3.88;;;1.05;;
22963;SDS011;11648;49.306;6.934;2023-08-08T09:57:15;2.97;;;0.70;;
22963;SDS011;11648;49.306;6.934;2023-08-08T09:59:43;2.58;;;1.00;;
22963;SDS011;11648;49.306;6.934;2023-08-08T10:02:13;4.15;;;0.90;;
22963;SDS011;11648;49.306;6.934;2023-08-08T10:04:41;3.45;;;0.90;;
22963;SDS011;11648;49.306;6.934;2023-08-08T10:07:09;2.70;;;0.90;;
22963;SDS011;11648;49.306;6.934;2023-08-08T10:09:36;2.35;;;0.85;;
22963;SDS011;11648;49.306;6.934;2023-08-08T10:12:04;1.85;;;0.82;;
22963;SDS011;11648;49.306;6.934;2023-08-08T10:14:34;2.63;;;1.00;;
22963;SDS011;11648;49.306;6.934;2023-08-08T10:17:03;3.08;;;0.77;;
22963;SDS011;11648;49.306;6.934;2023-08-08T10:19:31;2.63;;;0.88;;
22963;SDS011;11648;49.306;6.934;2023-08-08T10:22:03;2.03;;;0.80;;
22963;SDS011;11648;49.306;6.934;2023-08-08T10:24:34;2.00;;;0.70;;
22963;SDS011;11648;49.306;6.934;2023-08-08T10:27:02;1.67;;;0.88;;
22963;SDS011;11648;49.306;6.934;2023-08-08T10:29:32;1.35;;;0.60;;
22963;SDS011;11648;49.306;6.934;2023-08-08T10:32:01;1.85;;;0.73;;
22963;SDS011;11648;49.306;6.934;2023-08-08T10:34:46;1.92;;;0.80;;
22963;SDS011;11648;49.306;6.934;2023-08-08T10:37:16;3.65;;;0.80;;
22963;SDS011;11648;49.306;6.934;2023-08-08T10:39:53;2.22;;;0.65;;
22963;SDS011;11648;49.306;6.934;2023-08-08T10:42:22;1.80;;;0.50;;
22963;SDS011;11648;49.306;6.934;2023-08-08T10:44:57;2.33;;;0.80;;
22963;SDS011;11648;49.306;6.934;2023-08-08T10:47:34;2.88;;;0.80;;
22963;SDS011;11648;49.306;6.934;2023-08-08T10:50:06;2.90;;;0.70;;
22963;SDS011;11648;49.306;6.934;2023-08-08T10:52:38;2.08;;;0.63;;
22963;SDS011;11648;49.306;6.934;2023-08-08T10:55:19;2.40;;;0.93;;
22963;SDS011;11648;49.306;6.934;2023-08-08T10:57:58;3.22;;;0.63;;
22963;SDS011;11648;49.306;6.934;2023-08-08T11:00:27;2.22;;;0.75;;
22963;SDS011;11648;49.306;6.934;2023-08-08T11:02:56;1.95;;;0.70;;
22963;SDS011;11648;49.306;6.934;2023-08-08T11:05:24;2.22;;;0.80;;
22963;SDS011;11648;49.306;6.934;2023-08-08T11:07:52;1.60;;;0.52;;
22963;SDS011;11648;49.306;6.934;2023-08-08T11:10:20;2.35;;;0.70;;
22963;SDS011;11648;49.306;6.934;2023-08-08T11:12:53;2.42;;;0.70;;
22963;SDS011;11648;49.306;6.934;2023-08-08T11:15:23;1.58;;;0.57;;
22963;SDS011;11648;49.306;6.934;2023-08-08T11:17:51;2.30;;;0.77;;
22963;SDS011;11648;49.306;6.934;2023-08-08T11:20:19;1.23;;;0.50;;
22963;SDS011;11648;49.306;6.934;2023-08-08T11:22:50;1.60;;;0.57;;
22963;SDS011;11648;49.306;6.934;2023-08-08T11:25:21;1.60;;;0.60;;
22963;SDS011;11648;49.306;6.934;2023-08-08T11:27:52;3.65;;;0.90;;
22963;SDS011;11648;49.306;6.934;2023-08-08T11:30:20;1.73;;;0.80;;
22963;SDS011;11648;49.306;6.934;2023-08-08T11:32:48;3.50;;;0.80;;
22963;SDS011;11648;49.306;6.934;2023-08-08T11:35:36;3.58;;;0.90;;
22963;SDS011;11648;49.306;6.934;2023-08-08T11:38:03;1.90;;;0.70;;
22963;SDS011;11648;49.306;6.934;2023-08-08T11:40:30;3.08;;;1.00;;
22963;SDS011;11648;49.306;6.934;2023-08-08T11:42:58;4.05;;;0.95;;
22963;SDS011;11648;49.306;6.934;2023-08-08T11:45:26;3.40;;;0.70;;
22963;SDS011;11648;49.306;6.934;2023-08-08T11:47:53;2.53;;;0.60;;
22963;SDS011;11648;49.306;6.934;2023-08-08T11:50:22;1.40;;;0.55;;
22963;SDS011;11648;49.306;6.934;2023-08-08T11:52:51;2.40;;;0.80;;
22963;SDS011;11648;49.306;6.934;2023-08-08T11:55:19;2.95;;;0.80;;
22963;SDS011;11648;49.306;6.934;2023-08-08T11:57:50;2.58;;;0.70;;
22963;SDS011;11648;49.306;6.934;2023-08-08T12:00:17;3.65;;;0.80;;
22963;SDS011;11648;49.306;6.934;2023-08-08T12:02:44;2.10;;;0.70;;
22963;SDS011;11648;49.306;6.934;2023-08-08T12:05:13;2.85;;;0.80;;
22963;SDS011;11648;49.306;6.934;2023-08-08T12:07:48;2.83;;;0.75;;
22963;SDS011;11648;49.306;6.934;2023-08-08T12:10:17;2.55;;;0.65;;
22963;SDS011;11648;49.306;6.934;2023-08-08T12:12:45;2.30;;;0.60;;
22963;SDS011;11648;49.306;6.934;2023-08-08T12:15:13;2.22;;;0.80;;
22963;SDS011;11648;49.306;6.934;2023-08-08T12:17:42;2.08;;;0.63;;
22963;SDS011;11648;49.306;6.934;2023-08-08T12:20:10;2.58;;;0.82;;
22963;SDS011;11648;49.306;6.934;2023-08-08T12:22:36;4.18;;;1.00;;
22963;SDS011;11648;49.306;6.934;2023-08-08T12:25:04;3.00;;;0.80;;
22963;SDS011;11648;49.306;6.934;2023-08-08T12:27:31;2.60;;;0.80;;
22963;SDS011;11648;49.306;6.934;2023-08-08T12:29:57;1.52;;;0.65;;
22963;SDS011;11648;49.306;6.934;2023-08-08T12:32:25;2.30;;;0.80;;
22963;SDS011;11648;49.306;6.934;2023-08-08T12:34:55;3.28;;;0.80;;
22963;SDS011;11648;49.306;6.934;2023-08-08T12:37:22;4.45;;;1.02;;
22963;SDS011;11648;49.306;6.934;2023-08-08T12:39:50;3.28;;;0.95;;
22963;SDS011;11648;49.306;6.934;2023-08-08T12:42:17;2.72;;;0.80;;
22963;SDS011;11648;49.306;6.934;2023-08-08T12:44:44;3.10;;;0.80;;
22963;SDS011;11648;49.306;6.934;2023-08-08T12:47:13;4.90;;;0.93;;
22963;SDS011;11648;49.306;6.934;2023-08-08T12:49:41;2.35;;;0.70;;
22963;SDS011;11648;49.306;6.934;2023-08-08T12:52:08;2.03;;;0.70;;
22963;SDS011;11648;49.306;6.934;2023-08-08T12:54:36;3.15;;;0.70;;
22963;SDS011;11648;49.306;6.934;2023-08-08T12:57:03;3.33;;;1.00;;
22963;SDS011;11648;49.306;6.934;2023-08-08T12:59:30;2.97;;;0.80;;
22963;SDS011;11648;49.306;6.934;2023-08-08T13:01:57;3.43;;;0.90;;
22963;SDS011;11648;49.306;6.934;2023-08-08T13:04:24;1.80;;;0.77;;
22963;SDS011;11648;49.306;6.934;2023-08-08T13:06:51;2.00;;;0.80;;
22963;SDS011;11648;49.306;6.934;2023-08-08T13:09:18;2.60;;;0.90;;
22963;SDS011;11648;49.306;6.934;2023-08-08T13:11:45;3.10;;;1.00;;
22963;SDS011;11648;49.306;6.934;2023-08-08T13:14:12;2.07;;;0.90;;
22963;SDS011;11648;49.306;6.934;2023-08-08T13:16:38;3.43;;;0.93;;
22963;SDS011;11648;49.306;6.934;2023-08-08T13:19:05;2.70;;;0.87;;
22963;SDS011;11648;49.306;6.934;2023-08-08T13:21:32;4.40;;;1.20;;
22963;SDS011;11648;49.306;6.934;2023-08-08T13:23:59;3.80;;;1.27;;
22963;SDS011;11648;49.306;6.934;2023-08-08T13:26:26;3.17;;;1.13;;
22963;SDS011;11648;49.306;6.934;2023-08-08T13:28:53;2.20;;;0.90;;
22963;SDS011;11648;49.306;6.934;2023-08-08T13:31:20;2.43;;;0.80;;
22963;SDS011;11648;49.306;6.934;2023-08-08T13:33:46;3.23;;;0.83;;
22963;SDS011;11648;49.306;6.934;2023-08-08T13:36:13;2.87;;;1.00;;
22963;SDS011;11648;49.306;6.934;2023-08-08T13:38:40;6.20;;;1.10;;
22963;SDS011;11648;49.306;6.934;2023-08-08T13:41:06;3.13;;;0.90;;
22963;SDS011;11648;49.306;6.934;2023-08-08T13:43:33;3.33;;;1.10;;
22963;SDS011;11648;49.306;6.934;2023-08-08T13:46:00;2.43;;;0.87;;
22963;SDS011;11648;49.306;6.934;2023-08-08T13:48:27;3.43;;;1.00;;
22963;SDS011;11648;49.306;6.934;2023-08-08T13:50:54;2.13;;;1.00;;
22963;SDS011;11648;49.306;6.934;2023-08-08T13:53:20;4.03;;;1.10;;
22963;SDS011;11648;49.306;6.934;2023-08-08T13:55:47;4.17;;;1.27;;
22963;SDS011;11648;49.306;6.934;2023-08-08T13:58:14;2.60;;;0.80;;
22963;SDS011;11648;49.306;6.934;2023-08-08T14:00:40;4.47;;;1.20;;
22963;SDS011;11648;49.306;6.934;2023-08-08T14:03:07;2.93;;;1.20;;
22963;SDS011;11648;49.306;6.934;2023-08-08T14:05:35;2.33;;;0.70;;
22963;SDS011;11648;49.306;6.934;2023-08-08T14:08:03;3.63;;;1.07;;
22963;SDS011;11648;49.306;6.934;2023-08-08T14:10:30;2.60;;;1.00;;
22963;SDS011;11648;49.306;6.934;2023-08-08T14:12:57;2.33;;;1.00;;
22963;SDS011;11648;49.306;6.934;2023-08-08T14:15:24;1.90;;;1.00;;
22963;SDS011;11648;49.306;6.934;2023-08-08T14:17:51;3.80;;;1.20;;
22963;SDS011;11648;49.306;6.934;2023-08-08T14:20:18;4.37;;;1.43;;
22963;SDS011;11648;49.306;6.934;2023-08-08T14:22:45;3.93;;;1.00;;
22963;SDS011;11648;49.306;6.934;2023-08-08T14:25:13;3.13;;;1.10;;
22963;SDS011;11648;49.306;6.934;2023-08-08T14:27:40;3.03;;;1.00;;
22963;SDS011;11648;49.306;6.934;2023-08-08T14:30:07;3.17;;;0.93;;
22963;SDS011;11648;49.306;6.934;2023-08-08T14:32:34;3.73;;;1.10;;
22963;SDS011;11648;49.306;6.934;2023-08-08T14:35:02;4.60;;;1.30;;
22963;SDS011;11648;49.306;6.934;2023-08-08T14:37:31;3.50;;;1.10;;
22963;SDS011;11648;49.306;6.934;2023-08-08T14:39:58;2.73;;;0.93;;
22963;SDS011;11648;49.306;6.934;2023-08-08T14:42:25;3.97;;;1.10;;
22963;SDS011;11648;49.306;6.934;2023-08-08T14:44:52;2.90;;;0.90;;
22963;SDS011;11648;49.306;6.934;2023-08-08T14:47:20;3.73;;;1.20;;
22963;SDS011;11648;49.306;6.934;2023-08-08T14:49:47;3.10;;;1.10;;
22963;SDS011;11648;49.306;6.934;2023-08-08T14:52:14;4.93;;;1.10;;
22963;SDS011;11648;49.306;6.934;2023-08-08T14:54:40;4.33;;;1.33;;
22963;SDS011;11648;49.306;6.934;2023-08-08T14:57:07;3.77;;;1.00;;